RJDT

Details ICAO RJDT (TSJ)
Name TSUSHIMA
Region Japan
Timezone Asia/Tokyo (UTC+9.0)
Plans Departing 5
Arriving 9
Stats Elevation 213 ft / 65 m (AMSL)
Location 34.284889° 129.330550°
Runways 1
Magnetic Variation 7.625° W
Sunrise 2017-12-15 22:23:16 UTC / 2017-12-16 07:23:16 Local
Sunset 2017-12-16 08:15:47 UTC / 2017-12-16 17:15:47 Local
Advertisement - Login to hide

Runways

ID Width Length Bearing (true) Bearing (mag) Surface Threshold Offset Overrun Length
14 150 ft / 46 m 6,237 ft / 1,901 m 136.16° 143.78° Asphalt 0 ft / 0 m 200 ft / 61 m
32 150 ft / 46 m 6,237 ft / 1,901 m 316.16° 323.78° Asphalt 0 ft / 0 m 200 ft / 61 m

Map

Weather


0- 5 10 15 20 25 30 35+ Temperature / ° C

Clouds and Precipitation
Forecast for 2017-12-16 12:00 UTC. Updated 30 minutes ago

Ground ~20,000 ft ~40,000 ft Winds

METAR

RJDT 161100Z 30012G23KT 250V350 9999 -SHSN FEW030 BKN040 04/M06 Q1024

TAF

Not found
Warning: Do not use this data for real-world aviation or navigation. No guarantee of current accuracy is given.